createdAt,value
2023-08-13T00:01:47.729Z,17.45
2023-08-13T00:04:16.429Z,17.44
2023-08-13T00:06:44.881Z,17.44
2023-08-13T00:09:13.252Z,17.42
2023-08-13T00:11:41.846Z,17.41
2023-08-13T00:14:10.435Z,17.39
2023-08-13T00:16:38.807Z,17.39
2023-08-13T00:19:07.539Z,17.38
2023-08-13T00:21:36.282Z,17.36
2023-08-13T00:24:04.972Z,17.35
2023-08-13T00:26:33.864Z,17.35
2023-08-13T00:29:02.305Z,17.35
2023-08-13T00:31:30.769Z,17.36
2023-08-13T00:33:59.329Z,17.36
2023-08-13T00:36:27.603Z,17.37
2023-08-13T00:38:55.979Z,17.37
2023-08-13T00:41:24.143Z,17.39
2023-08-13T00:43:52.389Z,17.39
2023-08-13T00:46:20.889Z,17.41
2023-08-13T00:48:49.849Z,17.45
2023-08-13T00:51:23.911Z,17.46
2023-08-13T00:53:52.238Z,17.48
2023-08-13T00:56:21.219Z,17.50
2023-08-13T00:58:50.480Z,17.51
2023-08-13T01:01:19.156Z,17.51
2023-08-13T01:03:47.722Z,17.51
2023-08-13T01:06:28.732Z,17.51
2023-08-13T01:09:07.097Z,17.50
2023-08-13T01:11:55.255Z,17.50
2023-08-13T01:14:26.407Z,17.50
2023-08-13T01:16:56.388Z,17.50
2023-08-13T01:19:25.355Z,17.49
2023-08-13T01:21:53.705Z,17.49
2023-08-13T01:24:21.969Z,17.49
2023-08-13T01:26:56.530Z,17.49
2023-08-13T01:29:38.532Z,17.49
2023-08-13T01:32:07.982Z,17.49
2023-08-13T01:34:37.434Z,17.50
2023-08-13T01:37:06.630Z,17.51
2023-08-13T01:39:35.289Z,17.52
2023-08-13T01:42:03.702Z,17.51
2023-08-13T01:44:32.028Z,17.50
2023-08-13T01:47:00.565Z,17.49
2023-08-13T01:49:29.251Z,17.46
2023-08-13T01:51:57.366Z,17.42
2023-08-13T01:54:25.644Z,17.38
2023-08-13T01:56:53.846Z,17.34
2023-08-13T01:59:22.270Z,17.28
2023-08-13T02:01:50.648Z,17.22
2023-08-13T02:04:19.044Z,17.17
2023-08-13T02:06:47.518Z,17.11
2023-08-13T02:09:16.021Z,17.04
2023-08-13T02:11:44.413Z,16.98
2023-08-13T02:14:12.764Z,16.92
2023-08-13T02:16:41.448Z,16.87
2023-08-13T02:19:10.128Z,16.82
2023-08-13T02:21:38.507Z,16.77
2023-08-13T02:24:07.341Z,16.73
2023-08-13T02:26:35.674Z,16.68
2023-08-13T02:29:04.161Z,16.61
2023-08-13T02:31:32.642Z,16.61
2023-08-13T02:34:01.295Z,16.59
2023-08-13T02:36:29.825Z,16.58
2023-08-13T02:38:58.083Z,16.56
2023-08-13T02:41:26.872Z,16.53
2023-08-13T02:43:57.108Z,16.51
2023-08-13T02:46:26.741Z,16.46
2023-08-13T02:48:55.896Z,16.43
2023-08-13T02:51:25.227Z,16.38
2023-08-13T02:53:53.601Z,16.34
2023-08-13T02:56:22.291Z,16.30
2023-08-13T02:58:50.769Z,16.26
2023-08-13T03:01:19.103Z,16.22
2023-08-13T03:03:53.300Z,16.16
2023-08-13T03:06:23.180Z,16.11
2023-08-13T03:08:51.857Z,16.07
2023-08-13T03:11:20.238Z,16.04
2023-08-13T03:13:49.031Z,16.03
2023-08-13T03:16:17.733Z,16.03
2023-08-13T03:18:46.923Z,16.03
2023-08-13T03:21:17.852Z,16.05
2023-08-13T03:23:47.419Z,16.08
2023-08-13T03:26:16.152Z,16.13
2023-08-13T03:28:45.376Z,16.16
2023-08-13T03:31:18.678Z,16.19
2023-08-13T03:33:57.975Z,16.24
2023-08-13T03:36:26.668Z,16.26
2023-08-13T03:38:55.150Z,16.30
2023-08-13T03:41:24.251Z,16.33
2023-08-13T03:43:52.550Z,16.36
2023-08-13T03:46:21.253Z,16.40
2023-08-13T03:48:49.384Z,16.44
2023-08-13T03:51:17.617Z,16.51
2023-08-13T03:53:45.885Z,16.58
2023-08-13T03:56:14.430Z,16.67
2023-08-13T03:58:43.526Z,16.74
2023-08-13T04:01:14.309Z,16.79
2023-08-13T04:03:43.513Z,16.85
2023-08-13T04:06:11.956Z,16.89
2023-08-13T04:08:40.423Z,16.91
2023-08-13T04:11:09.213Z,16.93
2023-08-13T04:13:37.626Z,16.96
2023-08-13T04:16:06.011Z,17.02
2023-08-13T04:18:34.962Z,17.08
2023-08-13T04:21:04.066Z,17.14
2023-08-13T04:23:32.439Z,17.23
2023-08-13T04:26:01.195Z,17.34
2023-08-13T04:28:30.086Z,17.47
2023-08-13T04:30:59.418Z,17.63
2023-08-13T04:33:28.826Z,17.80
2023-08-13T04:35:57.364Z,18.00
2023-08-13T04:38:28.296Z,18.19
2023-08-13T04:40:58.881Z,18.40
2023-08-13T04:43:27.315Z,18.61
2023-08-13T04:45:56.499Z,18.85
2023-08-13T04:48:49.632Z,19.07
2023-08-13T04:51:22.238Z,19.34
2023-08-13T04:53:50.555Z,19.57
2023-08-13T04:56:19.598Z,19.76
2023-08-13T04:58:47.995Z,19.98
2023-08-13T05:01:17.041Z,20.20
2023-08-13T05:03:49.738Z,20.42
2023-08-13T05:06:18.014Z,20.64
2023-08-13T05:08:46.617Z,20.84
2023-08-13T05:11:15.490Z,21.05
2023-08-13T05:13:43.772Z,21.27
2023-08-13T05:16:12.685Z,21.48
2023-08-13T05:18:42.064Z,21.69
2023-08-13T05:21:10.648Z,21.88
2023-08-13T05:23:39.030Z,22.07
2023-08-13T05:26:08.226Z,22.28
2023-08-13T05:28:37.119Z,22.49
2023-08-13T05:31:05.619Z,22.71
2023-08-13T05:33:34.446Z,22.93
2023-08-13T05:36:03.569Z,23.16
2023-08-13T05:38:33.201Z,23.38
2023-08-13T05:41:02.516Z,23.62
2023-08-13T05:43:31.605Z,23.86
2023-08-13T05:45:59.881Z,24.09
2023-08-13T05:48:28.673Z,24.29
2023-08-13T05:50:57.539Z,24.48
2023-08-13T05:53:25.836Z,24.64
2023-08-13T05:55:54.378Z,24.84
2023-08-13T05:58:22.846Z,25.05
2023-08-13T06:00:51.032Z,25.25
2023-08-13T06:03:19.465Z,25.48
2023-08-13T06:05:48.871Z,25.67
2023-08-13T06:08:17.249Z,25.88
2023-08-13T06:10:45.689Z,26.12
2023-08-13T06:13:14.451Z,26.25
2023-08-13T06:15:43.176Z,26.42
2023-08-13T06:18:12.616Z,26.57
2023-08-13T06:20:41.011Z,26.72
2023-08-13T06:23:09.175Z,26.93
2023-08-13T06:25:40.640Z,27.10
2023-08-13T06:28:09.931Z,27.23
2023-08-13T06:30:40.528Z,27.47
2023-08-13T06:33:08.982Z,27.73
2023-08-13T06:35:37.395Z,27.97
2023-08-13T06:38:05.859Z,28.14
2023-08-13T06:40:34.989Z,28.32
2023-08-13T06:43:03.490Z,28.50
2023-08-13T06:45:31.772Z,28.67
2023-08-13T06:48:00.682Z,28.87
2023-08-13T06:50:29.262Z,29.08
2023-08-13T06:52:57.723Z,29.22
2023-08-13T06:55:26.271Z,29.46
2023-08-13T06:57:54.700Z,29.60
2023-08-13T07:00:31.826Z,29.75
2023-08-13T07:03:09.391Z,29.95
2023-08-13T07:05:38.171Z,30.09
2023-08-13T07:08:10.716Z,30.30
2023-08-13T07:10:40.150Z,30.45
2023-08-13T07:13:08.488Z,30.51
2023-08-13T07:15:36.703Z,30.67
2023-08-13T07:18:05.291Z,30.85
2023-08-13T07:20:33.682Z,31.04
2023-08-13T07:23:02.118Z,31.22
2023-08-13T07:25:30.330Z,31.41
2023-08-13T07:27:58.653Z,31.55
2023-08-13T07:30:26.764Z,31.73
2023-08-13T07:32:57.305Z,31.92
2023-08-13T07:35:26.109Z,32.11
2023-08-13T07:37:54.544Z,32.23
2023-08-13T07:40:22.832Z,32.41
2023-08-13T07:42:51.102Z,32.57
2023-08-13T07:45:19.852Z,32.69
2023-08-13T07:47:48.315Z,32.78
2023-08-13T07:50:16.904Z,32.91
2023-08-13T07:52:46.002Z,33.03
2023-08-13T07:55:14.528Z,33.17
2023-08-13T07:57:42.959Z,33.37
2023-08-13T08:00:12.112Z,33.47
2023-08-13T08:02:45.890Z,33.55
2023-08-13T08:05:14.401Z,33.66
2023-08-13T08:07:42.633Z,33.68
2023-08-13T08:10:11.223Z,33.74
2023-08-13T08:12:39.596Z,33.83
2023-08-13T08:15:08.286Z,34.03
2023-08-13T08:17:38.615Z,34.19
2023-08-13T08:20:09.292Z,34.36
2023-08-13T08:22:37.764Z,34.46
2023-08-13T08:25:12.510Z,34.65
2023-08-13T08:27:40.958Z,34.72
2023-08-13T08:30:09.422Z,34.75
2023-08-13T08:32:37.804Z,34.84
2023-08-13T08:35:06.654Z,34.92
2023-08-13T08:37:35.386Z,34.86
2023-08-13T08:40:05.602Z,34.97
2023-08-13T08:42:34.188Z,35.06
2023-08-13T08:45:03.492Z,35.16
2023-08-13T08:47:33.443Z,35.33
2023-08-13T08:50:05.602Z,35.52
2023-08-13T08:52:34.989Z,35.54
2023-08-13T08:55:04.642Z,35.66
2023-08-13T08:57:33.712Z,35.82
2023-08-13T09:00:02.475Z,35.83
2023-08-13T09:02:31.412Z,35.92
2023-08-13T09:05:00.263Z,36.01
2023-08-13T09:07:32.448Z,36.20
2023-08-13T09:10:04.712Z,36.36
2023-08-13T09:12:36.872Z,36.59
2023-08-13T09:15:07.207Z,36.77
2023-08-13T09:17:35.721Z,36.89
2023-08-13T09:20:20.562Z,36.99
2023-08-13T09:22:49.945Z,37.09
2023-08-13T09:25:19.368Z,37.18
2023-08-13T09:27:47.971Z,37.04
2023-08-13T09:30:29.666Z,36.48
2023-08-13T09:32:59.386Z,35.96
2023-08-13T09:35:28.065Z,35.67
2023-08-13T09:37:56.883Z,35.68
2023-08-13T09:40:25.732Z,35.71
2023-08-13T09:42:57.090Z,36.00
2023-08-13T09:45:28.646Z,36.11
2023-08-13T09:48:01.049Z,35.99
2023-08-13T09:50:30.210Z,35.90
2023-08-13T09:52:59.399Z,36.07
2023-08-13T09:55:30.632Z,36.36
2023-08-13T09:58:02.103Z,36.68
2023-08-13T10:00:31.052Z,36.73
2023-08-13T10:03:00.163Z,36.78
2023-08-13T10:05:31.852Z,36.92
2023-08-13T10:08:00.762Z,37.16
2023-08-13T10:10:30.770Z,37.27
2023-08-13T10:12:59.242Z,36.96
2023-08-13T10:15:28.028Z,36.58
2023-08-13T10:17:56.635Z,36.31
2023-08-13T10:20:26.889Z,36.06
2023-08-13T10:22:55.596Z,35.82
2023-08-13T10:25:28.819Z,35.95
2023-08-13T10:27:57.536Z,36.31
2023-08-13T10:30:25.845Z,36.77
2023-08-13T10:33:02.812Z,37.27
2023-08-13T10:35:34.662Z,37.71
2023-08-13T10:38:05.048Z,38.13
2023-08-13T10:40:33.927Z,38.57
2023-08-13T10:43:03.584Z,38.45
2023-08-13T10:45:39.287Z,38.01
2023-08-13T10:48:08.138Z,37.48
2023-08-13T10:50:44.282Z,37.05
2023-08-13T10:53:12.880Z,36.74
2023-08-13T10:56:01.956Z,36.85
2023-08-13T10:58:40.873Z,37.23
2023-08-13T11:01:13.468Z,37.43
2023-08-13T11:03:55.019Z,37.37
2023-08-13T11:06:24.548Z,37.21
2023-08-13T11:08:52.840Z,36.97
2023-08-13T11:11:21.402Z,36.58
2023-08-13T11:13:49.975Z,36.18
2023-08-13T11:16:18.590Z,36.38
2023-08-13T11:18:47.306Z,36.78
2023-08-13T11:21:16.140Z,37.10
2023-08-13T11:23:45.577Z,37.42
2023-08-13T11:26:13.952Z,37.75
2023-08-13T11:28:42.276Z,38.11
2023-08-13T11:31:10.710Z,38.41
2023-08-13T11:33:39.074Z,38.34
2023-08-13T11:36:07.780Z,38.00
2023-08-13T11:38:36.511Z,37.64
2023-08-13T11:41:11.719Z,37.25
2023-08-13T11:43:40.282Z,37.04
2023-08-13T11:46:08.658Z,37.19
2023-08-13T11:48:38.915Z,37.57
2023-08-13T11:51:21.201Z,37.95
2023-08-13T11:53:50.700Z,38.22
2023-08-13T11:56:20.267Z,38.52
2023-08-13T11:58:49.553Z,38.74
2023-08-13T12:01:18.415Z,38.87
2023-08-13T12:03:47.243Z,38.88
2023-08-13T12:06:16.552Z,38.83
2023-08-13T12:08:46.608Z,38.99
2023-08-13T12:11:15.095Z,39.24
2023-08-13T12:13:43.617Z,39.41
2023-08-13T12:16:12.082Z,39.11
2023-08-13T12:18:40.341Z,38.76
2023-08-13T12:21:08.697Z,38.68
2023-08-13T12:23:36.893Z,38.49
2023-08-13T12:26:06.371Z,38.45
2023-08-13T12:28:34.930Z,38.62
2023-08-13T12:31:03.138Z,38.82
2023-08-13T12:33:31.617Z,38.99
2023-08-13T12:35:59.987Z,39.28
2023-08-13T12:38:28.290Z,39.53
2023-08-13T12:40:56.710Z,39.62
2023-08-13T12:43:24.877Z,39.63
2023-08-13T12:45:53.197Z,39.49
2023-08-13T12:48:21.471Z,39.56
2023-08-13T12:50:49.660Z,39.65
2023-08-13T12:53:18.069Z,39.71
2023-08-13T12:55:46.232Z,39.77
2023-08-13T12:58:14.642Z,39.55
2023-08-13T13:00:43.269Z,39.38
2023-08-13T13:03:11.735Z,39.44
2023-08-13T13:05:40.188Z,39.62
2023-08-13T13:08:08.415Z,39.74
2023-08-13T13:10:36.841Z,39.93
2023-08-13T13:13:05.531Z,39.87
2023-08-13T13:15:34.078Z,39.75
2023-08-13T13:18:02.739Z,39.75
2023-08-13T13:20:31.394Z,39.76
2023-08-13T13:22:59.763Z,39.96
2023-08-13T13:25:28.048Z,40.07
2023-08-13T13:27:56.430Z,40.19
2023-08-13T13:30:24.653Z,40.23
2023-08-13T13:32:53.094Z,40.31
2023-08-13T13:35:21.657Z,40.38
2023-08-13T13:37:50.526Z,40.44
2023-08-13T13:40:19.088Z,40.42
2023-08-13T13:42:47.730Z,40.26
2023-08-13T13:45:16.441Z,40.17
2023-08-13T13:47:44.850Z,40.01
2023-08-13T13:50:13.498Z,39.91
2023-08-13T13:52:42.024Z,39.94
2023-08-13T13:55:10.682Z,40.01
2023-08-13T13:57:39.042Z,40.09
2023-08-13T14:00:08.313Z,40.15
2023-08-13T14:02:37.521Z,40.02
2023-08-13T14:05:06.657Z,39.76
2023-08-13T14:07:35.382Z,39.52
2023-08-13T14:10:04.377Z,39.46
2023-08-13T14:12:32.912Z,39.37
2023-08-13T14:15:01.300Z,39.29
2023-08-13T14:17:29.707Z,39.28
2023-08-13T14:19:58.257Z,39.25
2023-08-13T14:22:26.845Z,39.23
2023-08-13T14:24:55.086Z,39.28
2023-08-13T14:27:26.533Z,39.29
2023-08-13T14:29:55.158Z,39.28
2023-08-13T14:32:23.959Z,39.35
2023-08-13T14:34:52.132Z,39.42
2023-08-13T14:37:20.784Z,39.47
2023-08-13T14:39:49.091Z,39.48
2023-08-13T14:42:17.847Z,39.39
2023-08-13T14:44:46.771Z,39.40
2023-08-13T14:47:15.154Z,39.51
2023-08-13T14:49:45.368Z,39.54
2023-08-13T14:52:13.739Z,39.57
2023-08-13T14:54:43.270Z,39.64
2023-08-13T14:57:11.858Z,39.79
2023-08-13T14:59:40.353Z,39.78
2023-08-13T15:02:08.983Z,39.81
2023-08-13T15:04:37.740Z,39.98
2023-08-13T15:07:06.307Z,40.20
2023-08-13T15:09:34.981Z,40.49
2023-08-13T15:12:03.572Z,40.82
2023-08-13T15:14:31.741Z,41.07
2023-08-13T15:17:00.227Z,41.25
2023-08-13T15:19:28.720Z,41.33
2023-08-13T15:21:57.196Z,41.50
2023-08-13T15:24:25.573Z,41.79
2023-08-13T15:26:53.802Z,41.99
2023-08-13T15:29:22.434Z,42.08
2023-08-13T15:31:51.025Z,42.24
2023-08-13T15:34:24.163Z,42.37
2023-08-13T15:36:53.013Z,42.43
2023-08-13T15:39:21.421Z,42.49
2023-08-13T15:41:49.660Z,42.44
2023-08-13T15:44:18.146Z,42.42
2023-08-13T15:46:47.021Z,42.41
2023-08-13T15:49:15.265Z,42.38
2023-08-13T15:51:43.596Z,42.29
2023-08-13T15:54:12.283Z,42.17
2023-08-13T15:56:40.768Z,41.97
2023-08-13T15:59:11.314Z,41.81
2023-08-13T16:01:39.777Z,41.61
2023-08-13T16:04:08.440Z,41.38
2023-08-13T16:06:38.503Z,41.12
2023-08-13T16:09:07.328Z,40.89
2023-08-13T16:11:36.393Z,40.68
2023-08-13T16:14:05.064Z,40.45
2023-08-13T16:16:33.526Z,40.06
2023-08-13T16:19:02.039Z,39.72
2023-08-13T16:21:30.455Z,39.39
2023-08-13T16:24:09.405Z,39.02
2023-08-13T16:26:43.090Z,38.58
2023-08-13T16:29:11.615Z,38.30
2023-08-13T16:31:40.188Z,37.96
2023-08-13T16:34:08.700Z,37.47
2023-08-13T16:36:38.717Z,36.97
2023-08-13T16:39:07.115Z,36.53
2023-08-13T16:41:35.579Z,36.25
2023-08-13T16:44:04.373Z,36.05
2023-08-13T16:46:32.893Z,35.84
2023-08-13T16:49:01.547Z,35.63
2023-08-13T16:51:29.829Z,35.47
2023-08-13T16:53:58.407Z,35.30
2023-08-13T16:56:26.580Z,35.10
2023-08-13T16:58:54.965Z,34.86
2023-08-13T17:01:23.402Z,34.41
2023-08-13T17:03:51.886Z,33.90
2023-08-13T17:06:20.422Z,33.42
2023-08-13T17:08:49.437Z,32.94
2023-08-13T17:11:17.964Z,32.51
2023-08-13T17:13:46.415Z,32.11
2023-08-13T17:16:14.601Z,31.71
2023-08-13T17:18:43.091Z,31.30
2023-08-13T17:21:12.943Z,30.93
2023-08-13T17:23:41.237Z,30.58
2023-08-13T17:26:09.554Z,30.24
2023-08-13T17:28:39.104Z,29.92
2023-08-13T17:31:07.380Z,29.62
2023-08-13T17:33:36.082Z,29.34
2023-08-13T17:36:04.718Z,29.09
2023-08-13T17:38:33.268Z,28.83
2023-08-13T17:41:01.706Z,28.57
2023-08-13T17:43:29.766Z,28.31
2023-08-13T17:45:59.371Z,28.06
2023-08-13T17:48:27.780Z,27.80
2023-08-13T17:50:56.378Z,27.53
2023-08-13T17:53:24.830Z,27.27
2023-08-13T17:55:53.611Z,27.03
2023-08-13T17:58:22.026Z,26.82
2023-08-13T18:00:50.385Z,26.61
2023-08-13T18:03:19.062Z,26.40
2023-08-13T18:05:47.580Z,26.18
2023-08-13T18:08:16.387Z,25.97
2023-08-13T18:10:45.108Z,25.76
2023-08-13T18:13:13.831Z,25.55
2023-08-13T18:15:44.072Z,25.35
2023-08-13T18:18:13.529Z,25.15
2023-08-13T18:20:42.558Z,24.96
2023-08-13T18:23:11.749Z,24.77
2023-08-13T18:25:40.522Z,24.60
2023-08-13T18:28:09.042Z,24.41
2023-08-13T18:30:37.541Z,24.24
2023-08-13T18:33:05.947Z,24.08
2023-08-13T18:35:34.185Z,23.91
2023-08-13T18:38:02.673Z,23.74
2023-08-13T18:40:31.059Z,23.59
2023-08-13T18:42:59.439Z,23.45
2023-08-13T18:45:30.371Z,23.31
2023-08-13T18:47:58.809Z,23.19
2023-08-13T18:50:27.646Z,23.08
2023-08-13T18:52:57.121Z,22.95
2023-08-13T18:55:27.619Z,22.84
2023-08-13T18:57:56.096Z,22.73
2023-08-13T19:00:24.562Z,22.63
2023-08-13T19:02:52.983Z,22.52
2023-08-13T19:05:21.315Z,22.42
2023-08-13T19:07:49.685Z,22.33
2023-08-13T19:10:18.476Z,22.25
2023-08-13T19:12:47.321Z,22.15
2023-08-13T19:15:16.003Z,22.06
2023-08-13T19:17:44.464Z,21.96
2023-08-13T19:20:13.080Z,21.87
2023-08-13T19:22:41.708Z,21.79
2023-08-13T19:25:10.509Z,21.71
2023-08-13T19:27:38.850Z,21.63
2023-08-13T19:30:09.092Z,21.55
2023-08-13T19:32:37.354Z,21.47
2023-08-13T19:35:06.131Z,21.41
2023-08-13T19:37:34.655Z,21.34
2023-08-13T19:40:08.403Z,21.27
2023-08-13T19:42:36.835Z,21.20
2023-08-13T19:45:05.419Z,21.14
2023-08-13T19:47:33.728Z,21.07
2023-08-13T19:50:05.125Z,21.00
2023-08-13T19:52:33.466Z,20.94
2023-08-13T19:55:02.233Z,20.88
2023-08-13T19:57:30.579Z,20.82
2023-08-13T19:59:59.120Z,20.76
2023-08-13T20:02:27.629Z,20.70
2023-08-13T20:04:56.155Z,20.64
2023-08-13T20:07:24.600Z,20.57
2023-08-13T20:09:53.009Z,20.50
2023-08-13T20:12:21.489Z,20.44
2023-08-13T20:14:49.870Z,20.38
2023-08-13T20:17:18.498Z,20.34
2023-08-13T20:19:47.141Z,20.27
2023-08-13T20:22:17.385Z,20.24
2023-08-13T20:24:46.513Z,20.23
2023-08-13T20:27:15.150Z,20.23
2023-08-13T20:29:44.700Z,20.21
2023-08-13T20:32:13.138Z,20.22
2023-08-13T20:34:41.620Z,20.22
2023-08-13T20:37:09.857Z,20.23
2023-08-13T20:39:38.276Z,20.25
2023-08-13T20:42:06.926Z,20.30
2023-08-13T20:44:35.350Z,20.35
2023-08-13T20:47:04.035Z,20.38
2023-08-13T20:49:34.316Z,20.39
2023-08-13T20:52:02.448Z,20.41
2023-08-13T20:54:30.837Z,20.42
2023-08-13T20:56:59.300Z,20.41
2023-08-13T20:59:27.475Z,20.42
2023-08-13T21:01:55.905Z,20.40
2023-08-13T21:04:24.445Z,20.40
2023-08-13T21:06:52.736Z,20.39
2023-08-13T21:09:20.994Z,20.37
2023-08-13T21:11:49.621Z,20.34
2023-08-13T21:14:17.960Z,20.32
2023-08-13T21:16:46.267Z,20.29
2023-08-13T21:19:15.133Z,20.25
2023-08-13T21:21:43.598Z,20.19
2023-08-13T21:24:11.790Z,20.13
2023-08-13T21:26:40.166Z,20.07
2023-08-13T21:29:08.619Z,19.98
2023-08-13T21:31:36.827Z,19.89
2023-08-13T21:34:05.315Z,19.82
2023-08-13T21:36:33.607Z,19.74
2023-08-13T21:39:02.091Z,19.65
2023-08-13T21:41:30.647Z,19.56
2023-08-13T21:43:58.804Z,19.49
2023-08-13T21:46:27.307Z,19.42
2023-08-13T21:48:55.414Z,19.35
2023-08-13T21:51:23.557Z,19.28
2023-08-13T21:53:52.261Z,19.21
2023-08-13T21:56:20.944Z,19.15
2023-08-13T21:58:49.380Z,19.09
2023-08-13T22:01:17.735Z,19.03
2023-08-13T22:03:46.161Z,18.98
2023-08-13T22:06:14.554Z,18.91
2023-08-13T22:08:42.836Z,18.85
2023-08-13T22:11:11.415Z,18.80
2023-08-13T22:13:39.922Z,18.75
2023-08-13T22:16:08.208Z,18.70
2023-08-13T22:18:36.567Z,18.66
2023-08-13T22:21:04.941Z,18.61
2023-08-13T22:23:33.223Z,18.56
2023-08-13T22:26:12.895Z,18.53
2023-08-13T22:28:46.690Z,18.49
2023-08-13T22:31:15.655Z,18.46
2023-08-13T22:33:43.952Z,18.43
2023-08-13T22:36:12.633Z,18.40
2023-08-13T22:38:40.836Z,18.37
2023-08-13T22:41:09.086Z,18.35
2023-08-13T22:43:37.554Z,18.31
2023-08-13T22:46:06.929Z,18.28
2023-08-13T22:48:35.211Z,18.23
2023-08-13T22:51:03.476Z,18.19
2023-08-13T22:53:32.057Z,18.17
2023-08-13T22:56:00.130Z,18.14
2023-08-13T22:58:28.480Z,18.09
2023-08-13T23:00:56.921Z,18.05
2023-08-13T23:03:28.503Z,18.01
2023-08-13T23:05:57.490Z,17.96
2023-08-13T23:08:25.852Z,17.90
2023-08-13T23:10:54.351Z,17.85
2023-08-13T23:13:22.692Z,17.80
2023-08-13T23:15:51.517Z,17.75
2023-08-13T23:18:19.948Z,17.71
2023-08-13T23:20:48.583Z,17.67
2023-08-13T23:23:16.975Z,17.64
2023-08-13T23:25:45.330Z,17.62
2023-08-13T23:28:14.000Z,17.60
2023-08-13T23:30:42.379Z,17.58
2023-08-13T23:33:10.666Z,17.54
2023-08-13T23:35:39.379Z,17.52
2023-08-13T23:38:07.885Z,17.47
2023-08-13T23:40:35.945Z,17.42
2023-08-13T23:43:04.318Z,17.38
2023-08-13T23:45:32.664Z,17.33
2023-08-13T23:48:01.725Z,17.29
2023-08-13T23:50:34.512Z,17.25
2023-08-13T23:53:07.969Z,17.21
2023-08-13T23:55:36.227Z,17.19
2023-08-13T23:58:06.170Z,17.17
